Springbrook, North Dakota
Current Conditions -  °F | °C
As of 3:32 AM on Friday 28 Nov 2014 (Local Time) from KISN Reporting Station
Haze Haze  
Wind Chill:   Ceiling: 4700
Heat Index: 18°   Visibility: 5mi
Dew Point: 14°   Wind: 9mph
Humidity: 84%   Direction: 60°ENE
Pressure: 29.74"   Gusts: NA
Location:  48.2414°N, 103.345°W
Report Text: KISN 280932Z AUTO 06008KT 5SM BR SCT008 BKN047 OVC085 M08/M10 A2974 RMK AO2 UPE32 P0005 T10781100
Loading
Personal Weather Stations






























Interactive Weather Map New forecast layout! Learn more

10-Day Weather Forecast

Advertisements
Track Severe Weather on mobile